Time;durP1;ratioP1;P1;durP2;ratioP2;P2;SDS_P1;SDS_P2;PMS_P1;PMS_P2;Temp;Humidity;BMP_temperature;BMP_pressure;BME280_temperature;BME280_humidity;BME280_pressure;Samples;Min_cycle;Max_cycle;Signal;HPM_P1;HPM_P2
2022/04/03 00:01:29;;;;;;;;;;;0.80;99.90;;;;;;5113633;28;19923;-68
2022/04/03 00:03:55;;;;;;;;;;;0.80;99.90;;;;;;5113520;28;19915;-68
2022/04/03 00:06:21;;;;;;;;;;;0.80;99.90;;;;;;5113341;28;20364;-68
2022/04/03 00:08:47;;;;;;;;;;;0.70;99.90;;;;;;5113294;28;19920;-68
2022/04/03 00:11:13;;;;;;;;;;;0.70;99.90;;;;;;5113574;28;20044;-69
2022/04/03 00:13:38;;;;;;;;;;;0.80;99.90;;;;;;5113430;28;20369;-68
2022/04/03 00:16:04;;;;;;;;;;;0.80;99.90;;;;;;5113456;28;19922;-68
2022/04/03 00:18:30;;;;;;;;;;;0.80;99.90;;;;;;5112979;28;19915;-68
2022/04/03 00:20:55;;;;;;;;;;;0.80;99.90;;;;;;5113203;28;20006;-68
2022/04/03 00:23:23;;;;;;;;;;;0.90;99.90;;;;;;5113426;28;19916;-68
2022/04/03 00:25:49;;;;;;;;;;;0.90;99.90;;;;;;5111979;28;19915;-68
2022/04/03 00:28:15;;;;;;;;;;;0.90;99.90;;;;;;5113244;28;20346;-68
2022/04/03 00:30:41;;;;;;;;;;;0.90;99.90;;;;;;5112798;28;19916;-69
2022/04/03 00:33:06;;;;;;;;;;;0.90;99.90;;;;;;5113028;28;19920;-68
2022/04/03 00:35:32;;;;;;;;;;;0.90;99.90;;;;;;5112921;28;20345;-68
2022/04/03 00:37:58;;;;;;;;;;;0.90;99.90;;;;;;5112403;28;19938;-69
2022/04/03 00:40:26;;;;;;;;;;;0.90;99.90;;;;;;5112516;28;19926;-67
2022/04/03 00:42:52;;;;;;;;;;;0.90;99.90;;;;;;5113039;28;19916;-68
2022/04/03 00:45:17;;;;;;;;;;;0.90;99.90;;;;;;5112883;28;20375;-68
2022/04/03 00:47:43;;;;;;;;;;;0.90;99.90;;;;;;5112673;28;20002;-68
2022/04/03 00:50:10;;;;;;;;;;;0.90;99.90;;;;;;5112333;28;19915;-68
2022/04/03 00:52:35;;;;;;;;;;;0.90;99.90;;;;;;5111366;28;19972;-68
2022/04/03 00:55:02;;;;;;;;;;;1.00;99.90;;;;;;5111387;28;20329;-68
2022/04/03 00:57:27;;;;;;;;;;;0.90;99.90;;;;;;5112530;28;20390;-68
2022/04/03 00:59:53;;;;;;;;;;;0.90;99.90;;;;;;5112318;28;19927;-68
2022/04/03 01:02:19;;;;;;;;;;;0.90;99.90;;;;;;5112574;28;19919;-69
2022/04/03 01:04:44;;;;;;;;;;;0.90;99.90;;;;;;5112524;28;20399;-69
2022/04/03 01:07:10;;;;;;;;;;;0.90;99.90;;;;;;5112732;28;19938;-68
2022/04/03 01:09:36;;;;;;;;;;;0.90;99.90;;;;;;5112272;28;19916;-68
2022/04/03 01:12:02;;;;;;;;;;;0.80;99.90;;;;;;5110817;28;19928;-68
2022/04/03 01:14:32;;;;;;;;;;;0.80;99.90;;;;;;5112191;28;19916;-68
2022/04/03 01:16:58;;;;;;;;;;;0.70;99.90;;;;;;5111027;28;19926;-68
2022/04/03 01:19:24;;;;;;;;;;;0.70;99.90;;;;;;5110551;28;19916;-68
2022/04/03 01:21:50;;;;;;;;;;;0.60;99.90;;;;;;5112317;28;20298;-68
2022/04/03 01:24:20;;;;;;;;;;;0.60;99.90;;;;;;5112219;28;19916;-68
2022/04/03 01:26:46;;;;;;;;;;;0.60;99.90;;;;;;5112214;28;20333;-68
2022/04/03 01:29:11;;;;;;;;;;;0.50;99.90;;;;;;5111753;28;19916;-68
2022/04/03 01:31:37;;;;;;;;;;;0.50;99.90;;;;;;5111780;28;19942;-69
2022/04/03 01:34:02;;;;;;;;;;;0.40;99.90;;;;;;5112198;28;19924;-68
2022/04/03 01:36:28;;;;;;;;;;;0.40;99.90;;;;;;5112271;28;19985;-68
2022/04/03 01:38:53;;;;;;;;;;;0.40;99.90;;;;;;5111751;28;20387;-68
2022/04/03 01:41:18;;;;;;;;;;;0.40;99.90;;;;;;5111852;28;19915;-68
2022/04/03 01:43:44;;;;;;;;;;;0.40;99.90;;;;;;5111913;28;19969;-68
2022/04/03 01:46:09;;;;;;;;;;;0.40;99.90;;;;;;5111685;28;20002;-68
2022/04/03 01:48:35;;;;;;;;;;;0.40;99.90;;;;;;5111735;28;19916;-68
2022/04/03 01:51:00;;;;;;;;;;;0.40;99.90;;;;;;5111328;28;19945;-68
2022/04/03 01:53:26;;;;;;;;;;;0.30;99.90;;;;;;5111856;28;19926;-68
2022/04/03 01:55:59;;;;;;;;;;;0.30;99.90;;;;;;5110462;28;20339;-68
2022/04/03 01:58:24;;;;;;;;;;;0.30;99.90;;;;;;5110091;28;19915;-71
2022/04/03 02:00:50;;;;;;;;;;;0.40;99.90;;;;;;5111150;28;19922;-69
2022/04/03 02:03:15;;;;;;;;;;;0.40;99.90;;;;;;5111961;28;20372;-69
2022/04/03 02:05:41;;;;;;;;;;;0.30;99.90;;;;;;5111687;28;19915;-67
2022/04/03 02:08:06;;;;;;;;;;;0.30;99.90;;;;;;5111718;28;19995;-68
2022/04/03 02:10:32;;;;;;;;;;;0.30;99.90;;;;;;5111356;28;20391;-69
2022/04/03 02:12:57;;;;;;;;;;;0.30;99.90;;;;;;5111491;28;20388;-69
2022/04/03 02:15:23;;;;;;;;;;;0.30;99.90;;;;;;5111409;28;19962;-68
2022/04/03 02:17:48;;;;;;;;;;;0.20;99.90;;;;;;5111642;28;19920;-68
2022/04/03 02:20:14;;;;;;;;;;;0.20;99.90;;;;;;5111283;28;19915;-68
2022/04/03 02:22:39;;;;;;;;;;;0.20;99.90;;;;;;5111511;28;20299;-67
2022/04/03 02:25:09;;;;;;;;;;;0.20;99.90;;;;;;5111588;28;19915;-68
2022/04/03 02:27:35;;;;;;;;;;;0.20;99.90;;;;;;5111310;28;19920;-68
2022/04/03 02:30:00;;;;;;;;;;;0.20;99.90;;;;;;5110730;28;19915;-69
2022/04/03 02:32:26;;;;;;;;;;;0.20;99.90;;;;;;5111516;28;19924;-68
2022/04/03 02:34:52;;;;;;;;;;;0.20;99.90;;;;;;5111432;28;19924;-68
2022/04/03 02:37:18;;;;;;;;;;;0.20;99.90;;;;;;5111381;28;19920;-68
2022/04/03 02:39:44;;;;;;;;;;;0.20;99.90;;;;;;5111088;28;19919;-68
2022/04/03 02:42:09;;;;;;;;;;;0.20;99.90;;;;;;5111361;28;19939;-68
2022/04/03 02:44:35;;;;;;;;;;;0.20;99.90;;;;;;5111255;28;19924;-68
2022/04/03 02:47:00;;;;;;;;;;;0.10;99.90;;;;;;5111213;28;19923;-68
2022/04/03 02:49:26;;;;;;;;;;;0.10;99.90;;;;;;5109946;28;19916;-68
2022/04/03 02:51:52;;;;;;;;;;;0.10;99.90;;;;;;5111216;28;20002;-68
2022/04/03 02:54:17;;;;;;;;;;;0.10;99.90;;;;;;5111294;28;19919;-69
2022/04/03 02:56:43;;;;;;;;;;;0.10;99.90;;;;;;5111053;28;19942;-68
2022/04/03 02:59:08;;;;;;;;;;;0.00;99.90;;;;;;5110806;28;19915;-68
2022/04/03 03:01:34;;;;;;;;;;;0.00;99.90;;;;;;5111512;28;20367;-68
2022/04/03 03:03:59;;;;;;;;;;;0.00;99.90;;;;;;5114977;28;19915;-68
2022/04/03 03:06:25;;;;;;;;;;;0.00;99.90;;;;;;5114960;28;19940;-68
2022/04/03 03:08:50;;;;;;;;;;;0.00;99.90;;;;;;5114569;28;20507;-68
2022/04/03 03:11:16;;;;;;;;;;;0.00;99.90;;;;;;5114647;28;19961;-68
2022/04/03 03:13:41;;;;;;;;;;;0.00;99.90;;;;;;5114572;28;19951;-69
2022/04/03 03:16:07;;;;;;;;;;;0.00;99.90;;;;;;5113275;28;20006;-68
2022/04/03 03:18:33;;;;;;;;;;;0.00;99.90;;;;;;5095964;28;19915;-68
2022/04/03 03:20:58;;;;;;;;;;;0.00;99.90;;;;;;5114521;28;19994;-68
2022/04/03 03:23:24;;;;;;;;;;;0.00;99.90;;;;;;5114457;28;19915;-69
2022/04/03 03:25:50;;;;;;;;;;;0.00;99.90;;;;;;5114376;28;20072;-68
2022/04/03 03:28:15;;;;;;;;;;;-0.10;99.90;;;;;;5113060;28;20403;-68
2022/04/03 03:30:40;;;;;;;;;;;-0.10;99.90;;;;;;5114265;28;19925;-68
2022/04/03 03:33:06;;;;;;;;;;;-0.10;99.90;;;;;;5114160;28;20014;-69
2022/04/03 03:35:33;;;;;;;;;;;-0.10;99.90;;;;;;5114497;28;19923;-71
2022/04/03 03:37:59;;;;;;;;;;;-0.10;99.90;;;;;;5114381;28;19916;-68
2022/04/03 03:40:24;;;;;;;;;;;-0.10;99.90;;;;;;5113875;27;19916;-68
2022/04/03 03:42:50;;;;;;;;;;;0.00;99.90;;;;;;5114004;28;19916;-68
2022/04/03 03:45:16;;;;;;;;;;;0.00;99.90;;;;;;5114349;28;19916;-68
2022/04/03 03:47:45;;;;;;;;;;;0.00;99.90;;;;;;5113989;28;20394;-69
2022/04/03 03:50:11;;;;;;;;;;;0.10;99.90;;;;;;5113701;28;19919;-68
2022/04/03 03:52:37;;;;;;;;;;;0.10;99.90;;;;;;5113988;28;19974;-68
2022/04/03 03:55:02;;;;;;;;;;;0.10;99.90;;;;;;5115441;28;20425;-69
2022/04/03 03:57:28;;;;;;;;;;;0.10;99.90;;;;;;5117759;28;19968;-68
2022/04/03 03:59:53;;;;;;;;;;;0.20;99.90;;;;;;5117784;28;19920;-68
2022/04/03 04:02:19;;;;;;;;;;;0.30;99.90;;;;;;5118308;27;19930;-68
2022/04/03 04:04:44;;;;;;;;;;;0.40;99.90;;;;;;5116989;28;20375;-69
2022/04/03 04:07:10;;;;;;;;;;;0.30;99.90;;;;;;5113789;28;20006;-68
2022/04/03 04:09:36;;;;;;;;;;;0.40;99.90;;;;;;5113188;28;19915;-68
2022/04/03 04:12:03;;;;;;;;;;;0.40;99.90;;;;;;5113334;28;19992;-68
2022/04/03 04:14:29;;;;;;;;;;;0.50;99.90;;;;;;5113345;28;20272;-68
2022/04/03 04:16:54;;;;;;;;;;;0.50;99.90;;;;;;5113661;28;19969;-68
2022/04/03 04:19:20;;;;;;;;;;;0.50;99.90;;;;;;5111910;28;19932;-68
2022/04/03 04:21:45;;;;;;;;;;;0.50;99.90;;;;;;5113423;28;20244;-68
2022/04/03 04:24:11;;;;;;;;;;;0.60;99.90;;;;;;5112094;28;19915;-68
2022/04/03 04:26:36;;;;;;;;;;;0.60;99.90;;;;;;5111975;28;19916;-68
2022/04/03 04:29:03;;;;;;;;;;;0.60;99.90;;;;;;5113190;27;19919;-68
2022/04/03 04:31:29;;;;;;;;;;;0.60;99.90;;;;;;5113210;28;19993;-69
2022/04/03 04:33:54;;;;;;;;;;;0.70;99.90;;;;;;5113083;28;19923;-68
2022/04/03 04:36:20;;;;;;;;;;;0.60;99.90;;;;;;5094749;28;19916;-68
2022/04/03 04:38:45;;;;;;;;;;;0.70;99.90;;;;;;5111546;28;20591;-69
2022/04/03 04:41:12;;;;;;;;;;;0.70;99.90;;;;;;5112744;28;19916;-68
2022/04/03 04:43:38;;;;;;;;;;;0.80;99.90;;;;;;5111669;28;19915;-69
2022/04/03 04:46:04;;;;;;;;;;;0.70;99.90;;;;;;5112996;28;20268;-68
2022/04/03 04:48:29;;;;;;;;;;;0.80;99.90;;;;;;5112652;28;19960;-68
2022/04/03 04:50:55;;;;;;;;;;;0.70;99.90;;;;;;5112788;28;20361;-68
2022/04/03 04:53:21;;;;;;;;;;;0.80;99.90;;;;;;5112611;28;19920;-68
2022/04/03 04:55:47;;;;;;;;;;;0.80;99.90;;;;;;5112526;28;19919;-68
2022/04/03 04:58:12;;;;;;;;;;;0.80;99.90;;;;;;5112854;28;19922;-69
2022/04/03 05:00:37;;;;;;;;;;;0.80;99.90;;;;;;5110304;28;19916;-68
2022/04/03 05:03:04;;;;;;;;;;;0.90;99.90;;;;;;5094343;28;19920;-68
2022/04/03 05:05:30;;;;;;;;;;;0.90;99.90;;;;;;5112656;28;19923;-68
2022/04/03 05:07:57;;;;;;;;;;;0.80;99.90;;;;;;5111300;27;19916;-70
2022/04/03 05:10:24;;;;;;;;;;;0.80;99.90;;;;;;5109139;28;20283;-68
2022/04/03 05:12:49;;;;;;;;;;;0.80;99.90;;;;;;5112443;28;19920;-68
2022/04/03 05:15:15;;;;;;;;;;;0.90;99.90;;;;;;5115678;28;20386;-69
2022/04/03 05:17:42;;;;;;;;;;;0.80;99.90;;;;;;5113912;28;19938;-68
2022/04/03 05:20:08;;;;;;;;;;;0.80;99.90;;;;;;5115777;28;19920;-68
2022/04/03 05:22:33;;;;;;;;;;;0.80;99.90;;;;;;5114191;28;20016;-68
2022/04/03 05:24:59;;;;;;;;;;;0.80;99.90;;;;;;5111726;28;19916;-68
2022/04/03 05:27:25;;;;;;;;;;;0.70;99.90;;;;;;5093938;28;19915;-69
2022/04/03 05:29:51;;;;;;;;;;;0.70;99.90;;;;;;5111852;28;19916;-69
2022/04/03 05:32:26;;;;;;;;;;;0.60;99.90;;;;;;5111939;28;19946;-68
2022/04/03 05:34:52;;;;;;;;;;;0.60;99.90;;;;;;5112021;27;19996;-69
2022/04/03 05:37:18;;;;;;;;;;;0.70;99.90;;;;;;5112036;28;20367;-68
2022/04/03 05:39:43;;;;;;;;;;;0.80;99.90;;;;;;5111551;28;19947;-68
2022/04/03 05:42:09;;;;;;;;;;;0.80;99.90;;;;;;5112173;28;19922;-69
2022/04/03 05:44:35;;;;;;;;;;;0.90;99.90;;;;;;5110974;28;19970;-68
2022/04/03 05:47:01;;;;;;;;;;;0.90;99.90;;;;;;5111865;28;19916;-68
2022/04/03 05:49:26;;;;;;;;;;;0.90;99.90;;;;;;5111621;28;19923;-68
2022/04/03 05:51:52;;;;;;;;;;;0.90;99.90;;;;;;5111702;28;19919;-68
2022/04/03 05:54:17;;;;;;;;;;;1.00;99.90;;;;;;5111728;28;20005;-68
2022/04/03 05:56:44;;;;;;;;;;;1.00;99.90;;;;;;5110378;28;19919;-69
2022/04/03 05:59:09;;;;;;;;;;;1.00;99.90;;;;;;5109871;28;20383;-69
2022/04/03 06:01:35;;;;;;;;;;;1.00;99.90;;;;;;5110305;28;20041;-68
2022/04/03 06:04:00;;;;;;;;;;;1.00;99.90;;;;;;5111897;28;19941;-68
2022/04/03 06:06:25;;;;;;;;;;;1.10;99.90;;;;;;5111645;28;20485;-69
2022/04/03 06:08:51;;;;;;;;;;;1.10;99.90;;;;;;5110203;28;19919;-68
2022/04/03 06:11:18;;;;;;;;;;;1.20;99.90;;;;;;5111469;28;19998;-69
2022/04/03 06:13:43;;;;;;;;;;;1.20;99.90;;;;;;5111570;28;20448;-68
2022/04/03 06:16:10;;;;;;;;;;;1.20;99.90;;;;;;5110270;28;19920;-68
2022/04/03 06:18:35;;;;;;;;;;;1.20;99.90;;;;;;5111556;28;20379;-68
2022/04/03 06:21:01;;;;;;;;;;;1.30;99.90;;;;;;5111697;28;19915;-68
2022/04/03 06:23:26;;;;;;;;;;;1.30;99.90;;;;;;5111709;28;20031;-68
2022/04/03 06:25:53;;;;;;;;;;;1.40;99.90;;;;;;5111678;28;19994;-69
2022/04/03 06:28:19;;;;;;;;;;;1.40;99.90;;;;;;5110386;28;19999;-68
2022/04/03 06:30:46;;;;;;;;;;;1.50;99.90;;;;;;5109982;28;19923;-67
2022/04/03 06:33:12;;;;;;;;;;;1.60;99.90;;;;;;5111353;28;20656;-68
2022/04/03 06:35:38;;;;;;;;;;;1.70;99.90;;;;;;5111623;28;19934;-68
2022/04/03 06:38:04;;;;;;;;;;;1.90;99.90;;;;;;5114576;28;19916;-68
2022/04/03 06:40:31;;;;;;;;;;;2.00;99.90;;;;;;5115087;28;19922;-67
2022/04/03 06:42:57;;;;;;;;;;;2.10;99.90;;;;;;5115274;28;20345;-68
2022/04/03 06:45:23;;;;;;;;;;;2.20;99.90;;;;;;5115541;28;19919;-68
2022/04/03 06:47:48;;;;;;;;;;;2.30;99.90;;;;;;5115490;28;20306;-68
2022/04/03 06:50:14;;;;;;;;;;;2.50;99.90;;;;;;5108899;28;20510;-68
2022/04/03 06:52:39;;;;;;;;;;;2.60;99.90;;;;;;5093546;28;20014;-68
2022/04/03 06:55:05;;;;;;;;;;;2.70;99.90;;;;;;5100899;27;19967;-69
2022/04/03 06:57:31;;;;;;;;;;;2.70;99.90;;;;;;5113624;27;19947;-70
2022/04/03 06:59:57;;;;;;;;;;;2.80;99.90;;;;;;5092887;28;19923;-68
2022/04/03 07:02:22;;;;;;;;;;;2.80;99.90;;;;;;5110329;27;19921;-69
2022/04/03 07:04:47;;;;;;;;;;;2.80;99.90;;;;;;5125674;27;19922;-68
2022/04/03 07:07:20;;;;;;;;;;;2.80;99.90;;;;;;5116509;27;20378;-66
2022/04/03 07:09:45;;;;;;;;;;;2.90;99.90;;;;;;5135126;27;19965;-66
2022/04/03 07:12:11;;;;;;;;;;;2.90;99.90;;;;;;5135213;27;20329;-65
2022/04/03 07:14:37;;;;;;;;;;;2.90;99.90;;;;;;5135145;27;19923;-66
2022/04/03 07:17:03;;;;;;;;;;;2.90;99.90;;;;;;5135425;27;19919;-66
2022/04/03 07:19:28;;;;;;;;;;;3.00;99.90;;;;;;5099946;27;19998;-68
2022/04/03 07:21:53;;;;;;;;;;;3.10;99.90;;;;;;5108773;28;19915;-68
2022/04/03 07:24:19;;;;;;;;;;;3.10;99.90;;;;;;5114414;28;19923;-69
2022/04/03 07:26:44;;;;;;;;;;;3.30;99.90;;;;;;5114462;28;19915;-68
2022/04/03 07:29:10;;;;;;;;;;;3.10;99.90;;;;;;5113976;27;19923;-68
2022/04/03 07:31:35;;;;;;;;;;;3.20;99.90;;;;;;5114525;28;19926;-68
2022/04/03 07:34:01;;;;;;;;;;;3.20;99.90;;;;;;5114369;28;19970;-68
2022/04/03 07:36:26;;;;;;;;;;;3.40;99.90;;;;;;5112954;28;20364;-68
2022/04/03 07:38:52;;;;;;;;;;;3.40;99.90;;;;;;5114106;28;19927;-68
2022/04/03 07:41:19;;;;;;;;;;;3.40;99.90;;;;;;5112649;28;19915;-70
2022/04/03 07:43:44;;;;;;;;;;;3.50;99.90;;;;;;5114190;28;20424;-68
2022/04/03 07:46:15;;;;;;;;;;;3.40;99.90;;;;;;5113846;28;20006;-69
2022/04/03 07:48:40;;;;;;;;;;;3.50;99.90;;;;;;5112957;28;19919;-69
2022/04/03 07:51:05;;;;;;;;;;;3.50;99.90;;;;;;5113055;27;19915;-68
2022/04/03 07:53:31;;;;;;;;;;;3.60;99.90;;;;;;5113924;28;20375;-68
2022/04/03 07:55:56;;;;;;;;;;;3.60;99.90;;;;;;5113968;28;19926;-66
2022/04/03 07:58:22;;;;;;;;;;;3.80;99.90;;;;;;5113675;28;19923;-67
2022/04/03 08:00:47;;;;;;;;;;;3.70;99.90;;;;;;5113690;28;19916;-66
2022/04/03 08:03:14;;;;;;;;;;;3.90;99.90;;;;;;5113674;28;19916;-66
2022/04/03 08:05:40;;;;;;;;;;;3.90;99.90;;;;;;5113041;27;19984;-66
2022/04/03 08:08:06;;;;;;;;;;;3.90;99.90;;;;;;5113673;28;19973;-68
2022/04/03 08:10:31;;;;;;;;;;;4.00;99.90;;;;;;5112672;28;19926;-66
2022/04/03 08:12:57;;;;;;;;;;;4.10;99.90;;;;;;5113674;28;19923;-67
2022/04/03 08:15:22;;;;;;;;;;;4.10;99.90;;;;;;5113649;28;19929;-66
2022/04/03 08:17:48;;;;;;;;;;;4.10;99.90;;;;;;5113555;28;20605;-66
2022/04/03 08:20:17;;;;;;;;;;;4.10;99.90;;;;;;5113033;28;19916;-66
2022/04/03 08:22:44;;;;;;;;;;;4.20;99.90;;;;;;5113405;27;20417;-66
2022/04/03 08:25:10;;;;;;;;;;;4.40;99.90;;;;;;5113496;28;20390;-66
2022/04/03 08:27:46;;;;;;;;;;;4.40;99.90;;;;;;5112009;28;19941;-66
2022/04/03 08:30:13;;;;;;;;;;;4.40;99.90;;;;;;5112847;28;19958;-67
2022/04/03 08:32:39;;;;;;;;;;;4.70;99.90;;;;;;5113111;28;19919;-66
2022/04/03 08:35:04;;;;;;;;;;;4.70;99.90;;;;;;5113401;28;20436;-66
2022/04/03 08:37:30;;;;;;;;;;;5.20;99.90;;;;;;5113349;28;19984;-65
2022/04/03 08:39:55;;;;;;;;;;;5.40;99.90;;;;;;5112858;28;19994;-66
2022/04/03 08:42:21;;;;;;;;;;;5.20;99.90;;;;;;5113126;28;19916;-66
2022/04/03 08:44:46;;;;;;;;;;;5.20;99.90;;;;;;5101810;28;19967;-67
2022/04/03 08:47:15;;;;;;;;;;;5.50;99.90;;;;;;5103428;28;19924;-66
2022/04/03 08:49:41;;;;;;;;;;;5.50;99.90;;;;;;5100552;28;19920;-66
2022/04/03 08:52:09;;;;;;;;;;;5.50;99.90;;;;;;5102885;28;20011;-67
2022/04/03 08:54:36;;;;;;;;;;;5.40;99.90;;;;;;5103111;28;19926;-66
2022/04/03 08:57:02;;;;;;;;;;;5.50;99.90;;;;;;5109101;28;19926;-67
2022/04/03 08:59:27;;;;;;;;;;;5.50;99.90;;;;;;5101598;28;19924;-68
2022/04/03 09:01:53;;;;;;;;;;;5.50;99.90;;;;;;5094661;28;20354;-67
2022/04/03 09:04:20;;;;;;;;;;;5.50;99.90;;;;;;5094749;28;19961;-67
2022/04/03 09:06:54;;;;;;;;;;;5.50;99.90;;;;;;5093534;28;19919;-67
2022/04/03 09:09:23;;;;;;;;;;;5.60;99.90;;;;;;5090851;28;19927;-67
2022/04/03 09:12:07;;;;;;;;;;;5.60;99.90;;;;;;5098519;28;19973;-67
2022/04/03 09:14:33;;;;;;;;;;;5.70;99.90;;;;;;5102555;28;20197;-66
2022/04/03 09:16:58;;;;;;;;;;;5.80;99.90;;;;;;5103323;28;19923;-67
2022/04/03 09:19:31;;;;;;;;;;;5.80;99.90;;;;;;5096599;28;19916;-67
2022/04/03 09:21:56;;;;;;;;;;;5.90;99.90;;;;;;5099329;28;19916;-66
2022/04/03 09:24:22;;;;;;;;;;;5.80;99.90;;;;;;5110597;28;20362;-66
2022/04/03 09:26:56;;;;;;;;;;;5.90;99.90;;;;;;5111397;28;19916;-66
2022/04/03 09:29:22;;;;;;;;;;;5.90;99.90;;;;;;5111720;28;19923;-64
2022/04/03 09:31:47;;;;;;;;;;;6.00;99.90;;;;;;5111856;28;19920;-68
2022/04/03 09:34:16;;;;;;;;;;;6.30;99.90;;;;;;5109969;28;19923;-67
2022/04/03 09:36:42;;;;;;;;;;;6.20;99.90;;;;;;5107995;28;19919;-67
2022/04/03 09:39:14;;;;;;;;;;;6.30;99.90;;;;;;5111561;28;19920;-66
2022/04/03 09:41:58;;;;;;;;;;;6.30;99.90;;;;;;5111642;28;19919;-66
2022/04/03 09:44:25;;;;;;;;;;;6.30;99.90;;;;;;5109979;28;20602;-67
2022/04/03 09:47:09;;;;;;;;;;;6.40;99.90;;;;;;5111717;28;19916;-68
2022/04/03 09:49:35;;;;;;;;;;;6.40;99.90;;;;;;5111527;28;19999;-67
2022/04/03 09:52:00;;;;;;;;;;;6.50;99.90;;;;;;5110441;28;20352;-66
2022/04/03 09:54:26;;;;;;;;;;;6.60;99.90;;;;;;5111545;28;20017;-66
2022/04/03 09:56:51;;;;;;;;;;;6.60;99.90;;;;;;5111994;28;20383;-66
2022/04/03 09:59:17;;;;;;;;;;;6.70;99.90;;;;;;5111177;28;19920;-69
2022/04/03 10:01:42;;;;;;;;;;;6.70;99.90;;;;;;5111475;28;19926;-67
2022/04/03 10:04:14;;;;;;;;;;;6.80;99.90;;;;;;5111244;28;20394;-66
2022/04/03 10:06:39;;;;;;;;;;;6.90;99.90;;;;;;5111655;28;19915;-67
2022/04/03 10:09:11;;;;;;;;;;;7.00;99.90;;;;;;5110457;28;19916;-65
2022/04/03 10:11:37;;;;;;;;;;;7.10;99.90;;;;;;5113940;28;19915;-66
2022/04/03 10:14:03;;;;;;;;;;;7.10;99.90;;;;;;5114063;28;19934;-66
2022/04/03 10:16:29;;;;;;;;;;;7.10;99.90;;;;;;5115564;28;19924;-66
2022/04/03 10:18:56;;;;;;;;;;;7.10;99.90;;;;;;5115220;28;20371;-65
2022/04/03 10:21:24;;;;;;;;;;;7.00;99.90;;;;;;5115425;28;19923;-68
2022/04/03 10:23:52;;;;;;;;;;;7.00;99.90;;;;;;5115186;28;19945;-67
2022/04/03 10:26:18;;;;;;;;;;;7.10;99.90;;;;;;5114590;28;19920;-68
2022/04/03 10:28:47;;;;;;;;;;;7.10;99.90;;;;;;5115301;28;19968;-67
2022/04/03 10:31:15;;;;;;;;;;;7.10;99.90;;;;;;5115155;28;19928;-66
2022/04/03 10:33:43;;;;;;;;;;;7.20;99.90;;;;;;5115012;28;20021;-66
2022/04/03 10:36:09;;;;;;;;;;;7.20;99.90;;;;;;5115418;27;19916;-65
2022/04/03 10:38:39;;;;;;;;;;;7.40;99.90;;;;;;5114769;28;19916;-66
2022/04/03 10:41:06;;;;;;;;;;;7.30;99.90;;;;;;5114799;28;19973;-67
2022/04/03 10:43:36;;;;;;;;;;;7.40;99.90;;;;;;5115485;27;20311;-66
2022/04/03 10:46:02;;;;;;;;;;;7.40;99.90;;;;;;5112234;28;19959;-66
2022/04/03 10:48:30;;;;;;;;;;;7.40;99.90;;;;;;5115168;28;19980;-66
2022/04/03 10:50:56;;;;;;;;;;;7.40;99.90;;;;;;5096886;28;19922;-66
2022/04/03 10:53:26;;;;;;;;;;;7.40;99.90;;;;;;5115177;28;20530;-66
2022/04/03 10:55:55;;;;;;;;;;;7.50;99.90;;;;;;5114191;28;20264;-66
2022/04/03 10:58:21;;;;;;;;;;;7.60;99.90;;;;;;5113976;28;19916;-67
2022/04/03 11:00:48;;;;;;;;;;;7.60;99.90;;;;;;5114880;27;19919;-67
2022/04/03 11:03:13;;;;;;;;;;;7.60;99.90;;;;;;5115097;28;19967;-67
2022/04/03 11:05:39;;;;;;;;;;;7.70;99.90;;;;;;5114972;28;19974;-65
2022/04/03 11:08:04;;;;;;;;;;;7.70;99.90;;;;;;5114901;27;19922;-66
2022/04/03 11:10:45;;;;;;;;;;;7.70;99.90;;;;;;5114732;28;19923;-67
2022/04/03 11:13:13;;;;;;;;;;;7.70;99.90;;;;;;5103777;28;19927;-67
2022/04/03 11:15:54;;;;;;;;;;;7.70;99.90;;;;;;5114957;28;20287;-70
2022/04/03 11:18:29;;;;;;;;;;;7.70;99.90;;;;;;5114554;28;19916;-67
2022/04/03 11:21:14;;;;;;;;;;;7.70;99.90;;;;;;5113693;28;20022;-69
2022/04/03 11:23:46;;;;;;;;;;;7.80;99.90;;;;;;5113860;28;19923;-68
2022/04/03 11:26:12;;;;;;;;;;;7.80;99.90;;;;;;5114692;27;19916;-67
2022/04/03 11:28:38;;;;;;;;;;;7.80;99.90;;;;;;5114293;28;19926;-67
2022/04/03 11:31:04;;;;;;;;;;;7.90;99.90;;;;;;5113449;28;20393;-67
2022/04/03 11:33:30;;;;;;;;;;;8.00;99.90;;;;;;5114399;28;19919;-67
2022/04/03 11:36:00;;;;;;;;;;;8.00;99.90;;;;;;5113233;28;19916;-67
2022/04/03 11:38:32;;;;;;;;;;;8.10;99.90;;;;;;5114499;28;20291;-67
2022/04/03 11:40:57;;;;;;;;;;;8.20;99.90;;;;;;5114234;28;19941;-68
2022/04/03 11:43:23;;;;;;;;;;;8.30;99.90;;;;;;5112984;28;19915;-67
2022/04/03 11:45:50;;;;;;;;;;;8.30;99.90;;;;;;5112922;28;19968;-68
2022/04/03 11:48:19;;;;;;;;;;;8.40;99.90;;;;;;5114251;28;19960;-67
2022/04/03 11:50:45;;;;;;;;;;;8.50;99.90;;;;;;5114240;28;19915;-67
2022/04/03 11:53:11;;;;;;;;;;;8.60;99.90;;;;;;5114254;28;19926;-67
2022/04/03 11:55:37;;;;;;;;;;;8.60;99.90;;;;;;5114422;28;20290;-68
2022/04/03 11:58:04;;;;;;;;;;;8.70;99.90;;;;;;5116680;28;19923;-68
2022/04/03 12:00:33;;;;;;;;;;;8.80;97.10;;;;;;5118781;28;19915;-68
2022/04/03 12:02:59;;;;;;;;;;;8.70;99.90;;;;;;5119389;28;19915;-67
2022/04/03 12:05:24;;;;;;;;;;;8.60;99.90;;;;;;5117453;28;19916;-67
2022/04/03 12:07:50;;;;;;;;;;;8.70;99.60;;;;;;5118986;28;20282;-68
2022/04/03 12:10:26;;;;;;;;;;;8.80;99.90;;;;;;5116784;28;19915;-69
2022/04/03 12:12:53;;;;;;;;;;;9.00;98.10;;;;;;5113940;28;19920;-67
2022/04/03 12:15:19;;;;;;;;;;;8.90;96.00;;;;;;5114093;28;20399;-68
2022/04/03 12:17:45;;;;;;;;;;;9.00;99.90;;;;;;5113731;28;19962;-68
2022/04/03 12:20:12;;;;;;;;;;;8.80;95.00;;;;;;5113179;28;19916;-68
2022/04/03 12:22:40;;;;;;;;;;;8.80;99.90;;;;;;5113622;28;19920;-67
2022/04/03 12:25:06;;;;;;;;;;;8.80;99.90;;;;;;5113415;28;19981;-67
2022/04/03 12:27:32;;;;;;;;;;;8.90;99.90;;;;;;5113684;28;20459;-67
2022/04/03 12:29:58;;;;;;;;;;;9.00;99.90;;;;;;5113046;28;20015;-68
2022/04/03 12:32:26;;;;;;;;;;;8.90;99.90;;;;;;5113434;28;19966;-68
2022/04/03 12:34:53;;;;;;;;;;;8.90;99.90;;;;;;5113227;28;19919;-68
2022/04/03 12:37:19;;;;;;;;;;;8.90;99.90;;;;;;5112050;28;19977;-68
2022/04/03 12:39:45;;;;;;;;;;;8.90;99.90;;;;;;5112833;28;20004;-67
2022/04/03 12:42:11;;;;;;;;;;;8.80;99.90;;;;;;5113367;28;20303;-67
2022/04/03 12:45:06;;;;;;;;;;;8.80;97.10;;;;;;5113241;28;19926;-70
2022/04/03 12:47:37;;;;;;;;;;;8.70;98.60;;;;;;5103962;27;19915;-68
2022/04/03 12:50:03;;;;;;;;;;;8.70;99.90;;;;;;5112536;28;19923;-69
2022/04/03 12:52:45;;;;;;;;;;;8.80;99.90;;;;;;5113212;27;20429;-67
2022/04/03 12:55:26;;;;;;;;;;;8.90;99.90;;;;;;5113048;28;19915;-67
2022/04/03 13:00:54;;;;;;;;;;;8.80;99.90;;;;;;5112933;28;20287;-67
2022/04/03 13:03:29;;;;;;;;;;;8.70;99.90;;;;;;5111448;28;20010;-69
2022/04/03 13:06:00;;;;;;;;;;;8.60;99.90;;;;;;5112871;28;19915;-68
2022/04/03 13:08:26;;;;;;;;;;;8.60;99.90;;;;;;5112507;28;19916;-68
2022/04/03 13:10:56;;;;;;;;;;;8.70;99.90;;;;;;5112883;28;19996;-67
2022/04/03 13:13:22;;;;;;;;;;;8.70;99.90;;;;;;5115360;28;19974;-68
2022/04/03 13:15:47;;;;;;;;;;;8.80;99.90;;;;;;5114721;28;19939;-69
2022/04/03 13:18:13;;;;;;;;;;;8.80;99.90;;;;;;5115587;28;20295;-68
2022/04/03 13:20:39;;;;;;;;;;;8.80;99.90;;;;;;5114803;28;20410;-67
2022/04/03 13:23:04;;;;;;;;;;;8.90;99.90;;;;;;5112457;28;19916;-68
2022/04/03 13:25:29;;;;;;;;;;;8.70;99.90;;;;;;5112249;28;19915;-67
2022/04/03 13:27:55;;;;;;;;;;;8.80;99.90;;;;;;5111231;28;19915;-67
2022/04/03 13:30:20;;;;;;;;;;;8.80;99.90;;;;;;5112052;28;19916;-68
2022/04/03 13:32:46;;;;;;;;;;;8.60;99.90;;;;;;5112111;28;20158;-69
2022/04/03 13:35:11;;;;;;;;;;;8.90;98.60;;;;;;5112333;28;19923;-67
2022/04/03 13:37:37;;;;;;;;;;;8.80;99.90;;;;;;5110961;28;19923;-68
2022/04/03 13:40:02;;;;;;;;;;;8.80;99.40;;;;;;5111756;28;19931;-69
2022/04/03 13:42:28;;;;;;;;;;;8.80;98.40;;;;;;5112318;28;19915;-67
2022/04/03 13:44:53;;;;;;;;;;;8.90;98.10;;;;;;5112084;28;19959;-67
2022/04/03 13:47:19;;;;;;;;;;;8.70;99.60;;;;;;5111673;28;19915;-67
2022/04/03 13:49:44;;;;;;;;;;;8.80;97.80;;;;;;5111636;28;19916;-70
2022/04/03 13:52:10;;;;;;;;;;;8.80;99.90;;;;;;5111966;28;20303;-67
2022/04/03 13:54:35;;;;;;;;;;;8.90;99.90;;;;;;5111950;28;19915;-67
2022/04/03 13:57:01;;;;;;;;;;;8.90;97.90;;;;;;5112054;28;19916;-68
2022/04/03 13:59:26;;;;;;;;;;;9.10;99.90;;;;;;5111793;28;19919;-67
2022/04/03 14:01:52;;;;;;;;;;;9.10;99.10;;;;;;5111985;28;19923;-67
2022/04/03 14:04:17;;;;;;;;;;;9.10;96.80;;;;;;5111944;28;20290;-67
2022/04/03 14:06:43;;;;;;;;;;;9.00;93.10;;;;;;5110898;28;20287;-67
2022/04/03 14:09:09;;;;;;;;;;;9.10;93.00;;;;;;5111570;28;19916;-67
2022/04/03 14:11:36;;;;;;;;;;;9.10;93.80;;;;;;5110456;28;19916;-67
2022/04/03 14:14:03;;;;;;;;;;;9.10;92.20;;;;;;5093732;28;20489;-67
2022/04/03 14:16:28;;;;;;;;;;;9.10;94.00;;;;;;5111893;28;19916;-68
2022/04/03 14:18:54;;;;;;;;;;;9.20;98.80;;;;;;5111495;28;19994;-67
2022/04/03 14:21:23;;;;;;;;;;;9.20;92.10;;;;;;5111743;28;20002;-68
2022/04/03 14:23:48;;;;;;;;;;;9.30;97.20;;;;;;5111613;28;19916;-67
2022/04/03 14:26:14;;;;;;;;;;;9.40;99.80;;;;;;5111780;28;19916;-67
2022/04/03 14:28:39;;;;;;;;;;;9.60;99.90;;;;;;5111502;28;19955;-68